KBLF

Mercer County Airport

Bluefield, West Virginia, USA
METAR KBLF 232152Z AUTO 25011KT 10SM SCT060 21/08 A3030 RMK AO2 SLP236 T02110083
Observed Flight Rules
Feb-23 @ 21:52 UTC (45 minutes ago) Visual Flight Rules
Wind Visibility Clouds
250° at 11 knots 10 miles
  • Scattered at 6,000' AGL
Temperatures Readings
Current 21°C / 70°F
Dewpoint 8°C / 46°F
Humidity 43%
Altimeter 30.3" Hg
Pressure 1023.6 hPa
Elevation 873
METAR KBLF 232152Z AUTO 25011KT 10SM SCT060 21/08 A3030 RMK AO2 SLP236 T02110083
Observed Flight Rules
Feb-23 @ 21:52 UTC
(45 minutes ago)
VFR
Wind Visibility
250° at 11 knots 10 miles
Clouds
  • Scattered at 6,000' AGL
Temperature Dewpoint
21°C / 70°F 8°C / 46°F
Humidity Altimeter Pressure
43% 30.3" Hg 1023.6 hPa